Portada
METAR-TAF:

METAR-TAF

Aeroports :

Weipa, Austràlia

latitud: 12-40-43S, longitud: 141-55-31E, altitud: 19 m

Observació

L'informe es va fer fa 1 hora i 19 minuts, a les 11:00 UTC
Vent 3 kt del Est/Sud-Est
Temperatura 22°C
Humitat 73%
Pressió 1015 hPa
Visibilitat 10 km o més
Núvols disperses a una alçada de 3300 ft
Cel ennuvolat a una alçada de 4200 ft
Cel ennuvolat a una alçada de 4700 ft

METAR: YBWP 251100Z AUTO 11003KT 9999 // SCT033 BKN042 BKN047 22/17 Q1015

Hora: 22:19 (12:19 UTC)


TAF: manca

Observacions i pronòstics meteorològics de més de 4000 aeroports (METAR i TAF).

Les estacions disponibles són els punts grocs i vermells al mapa.

Posi el ratolí al punt desitjat per veure el nom de l'estació.

Feu clic per veure les observacions i els pronòstics meteorològics.

Per canviar el mapa: feu clic els botons verds amb una creu de color negre per apropar; al botó verd amb un guió per allunyar la imatge; o en les fletxes verdes per a mapes adjacents.


METAR-TAF: